Terminal Aerodrome Forecast
Issued by NWS

Home | Current Version | Previous Version | Text Only | Print | Product List | Glossary On
Versions: 1 2 3 4 5 6 7 8 9 10 11 12 13 14 15 16 17 18 19 20 21 22 23 24 25
000
FTUS43 KICT 222000 AAA
TAFHUT
TAF AMD
KHUT 222045Z 2221/2318 18018G29KT P6SM BKN100
     FM222200 19008KT P6SM VCSH OVC050
      TEMPO 2223/2303 5SM -SHRA OVC050
     FM230500 18006KT P6SM BKN050
     FM231100 17005KT 2SM BR BKN008=

USA.gov is the U.S. government's official web portal to all federal, state and local government web resources and services.